createdAt,value
2022-12-09T00:00:29.650Z,98591.28
2022-12-09T00:02:56.909Z,98597.34
2022-12-09T00:05:24.147Z,98597.34
2022-12-09T00:07:52.682Z,98596.72
2022-12-09T00:10:19.820Z,98596.09
2022-12-09T00:12:46.766Z,98599.28
2022-12-09T00:15:14.026Z,98609.75
2022-12-09T00:17:40.998Z,98611.31
2022-12-09T00:20:09.638Z,98609.13
2022-12-09T00:22:36.941Z,98610.09
2022-12-09T00:25:06.142Z,98613.69
2022-12-09T00:27:33.094Z,98610.97
2022-12-09T00:30:01.034Z,98604.91
2022-12-09T00:32:28.466Z,98606.41
2022-12-09T00:34:55.440Z,98609.13
2022-12-09T00:37:22.506Z,98615.78
2022-12-09T00:39:49.737Z,98620.53
2022-12-09T00:42:18.302Z,98622.41
2022-12-09T00:44:45.365Z,98614.41
2022-12-09T00:47:12.600Z,98613.44
2022-12-09T00:49:39.906Z,98619.16
2022-12-09T00:52:07.047Z,98620.75
2022-12-09T00:54:34.472Z,98624.09
2022-12-09T00:57:02.472Z,98622.47
2022-12-09T00:59:30.859Z,98621.25
2022-12-09T01:01:57.923Z,98622.75
2022-12-09T01:04:25.875Z,98623.72
2022-12-09T01:06:53.004Z,98611.75
2022-12-09T01:09:20.312Z,98616.84
2022-12-09T01:11:47.448Z,98623.81
2022-12-09T01:14:14.580Z,98620.91
2022-12-09T01:16:43.065Z,98626.44
2022-12-09T01:19:13.084Z,98620.22
2022-12-09T01:21:40.269Z,98614.78
2022-12-09T01:24:08.682Z,98617.94
2022-12-09T01:26:35.787Z,98619.50
2022-12-09T01:29:03.267Z,98623.81
2022-12-09T01:31:30.761Z,98620.31
2022-12-09T01:33:59.400Z,98626.63
2022-12-09T01:36:29.053Z,98620.59
2022-12-09T01:38:57.722Z,98628.66
2022-12-09T01:41:26.158Z,98633.75
2022-12-09T01:44:24.264Z,98644.13
2022-12-09T01:46:55.176Z,98634.28
2022-12-09T01:49:26.578Z,98641.75
2022-12-09T01:52:02.827Z,98632.53
2022-12-09T01:54:31.489Z,98633.31
2022-12-09T01:56:58.726Z,98626.03
2022-12-09T01:59:27.213Z,98621.09
2022-12-09T02:01:58.588Z,98624.59
2022-12-09T02:04:28.506Z,98625.41
2022-12-09T02:06:57.484Z,98620.31
2022-12-09T02:09:25.086Z,98616.78
2022-12-09T02:12:13.445Z,98603.84
2022-12-09T02:14:43.506Z,98604.19
2022-12-09T02:17:26.027Z,98611.25
2022-12-09T02:20:05.751Z,98606.84
2022-12-09T02:22:38.450Z,98612.28
2022-12-09T02:25:14.574Z,98613.09
2022-12-09T02:27:48.720Z,98612.75
2022-12-09T02:30:19.499Z,98619.41
2022-12-09T02:33:20.503Z,98612.41
2022-12-09T02:35:55.000Z,98621.78
2022-12-09T02:38:27.613Z,98618.09
2022-12-09T02:41:00.177Z,98625.75
2022-12-09T02:43:31.773Z,98625.75
2022-12-09T02:46:02.272Z,98626.72
2022-12-09T02:48:35.432Z,98621.78
2022-12-09T02:51:08.812Z,98632.97
2022-12-09T02:53:38.051Z,98639.63
2022-12-09T02:56:08.327Z,98626.88
2022-12-09T02:58:35.793Z,98641.13
2022-12-09T03:01:04.006Z,98651.16
2022-12-09T03:03:33.974Z,98646.81
2022-12-09T03:06:08.312Z,98642.53
2022-12-09T03:08:42.848Z,98633.13
2022-12-09T03:11:12.975Z,98637.09
2022-12-09T03:13:49.858Z,98633.56
2022-12-09T03:16:23.453Z,98646.47
2022-12-09T03:18:57.398Z,98643.94
2022-12-09T03:21:28.401Z,98646.94
2022-12-09T03:23:58.667Z,98650.25
2022-12-09T03:26:29.416Z,98637.50
2022-12-09T03:29:00.006Z,98631.53
2022-12-09T03:31:30.353Z,98631.19
2022-12-09T03:34:01.330Z,98638.81
2022-12-09T03:36:36.029Z,98644.56
2022-12-09T03:39:05.549Z,98650.50
2022-12-09T03:41:34.177Z,98659.94
2022-12-09T03:44:07.305Z,98661.97
2022-12-09T03:46:34.793Z,98652.84
2022-12-09T03:49:02.358Z,98652.69
2022-12-09T03:51:35.859Z,98660.03
2022-12-09T03:54:09.323Z,98662.41
2022-12-09T03:56:39.972Z,98664.06
2022-12-09T03:59:10.725Z,98658.56
2022-12-09T04:01:39.172Z,98667.84
2022-12-09T04:04:06.372Z,98661.56
2022-12-09T04:06:35.148Z,98678.47
2022-12-09T04:09:03.272Z,98678.13
2022-12-09T04:11:33.517Z,98672.56
2022-12-09T04:14:01.089Z,98673.22
2022-12-09T04:16:28.646Z,98677.91
2022-12-09T04:18:56.052Z,98671.41
2022-12-09T04:21:23.362Z,98663.16
2022-12-09T04:23:52.166Z,98664.28
2022-12-09T04:26:21.879Z,98662.25
2022-12-09T04:28:50.023Z,98663.53
2022-12-09T04:31:18.926Z,98666.44
2022-12-09T04:33:46.626Z,98665.63
2022-12-09T04:36:15.865Z,98668.34
2022-12-09T04:38:44.119Z,98668.59
2022-12-09T04:41:13.336Z,98663.03
2022-12-09T04:43:40.285Z,98674.34
2022-12-09T04:46:11.202Z,98677.53
2022-12-09T04:48:38.814Z,98682.59
2022-12-09T04:51:07.878Z,98678.75
2022-12-09T04:53:37.580Z,98683.84
2022-12-09T04:56:07.809Z,98679.09
2022-12-09T04:58:36.697Z,98683.72
2022-12-09T05:01:06.872Z,98689.59
2022-12-09T05:03:34.128Z,98685.44
2022-12-09T05:06:04.903Z,98694.94
2022-12-09T05:08:32.609Z,98700.97
2022-12-09T05:11:00.143Z,98703.94
2022-12-09T05:13:28.016Z,98713.97
2022-12-09T05:16:00.591Z,98718.59
2022-12-09T05:18:30.868Z,98715.25
2022-12-09T05:20:58.558Z,98713.03
2022-12-09T05:23:26.056Z,98701.00
2022-12-09T05:25:53.948Z,98699.91
2022-12-09T05:28:21.114Z,98697.50
2022-12-09T05:30:49.054Z,98692.44
2022-12-09T05:33:17.696Z,98698.31
2022-12-09T05:35:52.193Z,98697.66
2022-12-09T05:38:20.319Z,98708.59
2022-12-09T05:40:47.869Z,98708.25
2022-12-09T05:43:15.023Z,98703.44
2022-12-09T05:45:42.711Z,98709.94
2022-12-09T05:48:10.123Z,98717.13
2022-12-09T05:50:38.796Z,98699.00
2022-12-09T05:53:05.859Z,98704.63
2022-12-09T05:55:33.396Z,98702.53
2022-12-09T05:58:00.971Z,98705.56
2022-12-09T06:00:28.123Z,98705.72
2022-12-09T06:02:55.264Z,98702.41
2022-12-09T06:05:25.807Z,98706.69
2022-12-09T06:07:54.863Z,98710.22
2022-12-09T06:10:22.365Z,98718.47
2022-12-09T06:12:49.630Z,98717.34
2022-12-09T06:15:21.469Z,98726.50
2022-12-09T06:17:49.721Z,98724.44
2022-12-09T06:20:17.535Z,98729.22
2022-12-09T06:22:45.170Z,98727.25
2022-12-09T06:25:13.663Z,98735.38
2022-12-09T06:27:41.150Z,98734.25
2022-12-09T06:30:09.460Z,98734.34
2022-12-09T06:32:37.419Z,98733.72
2022-12-09T06:35:08.208Z,98734.53
2022-12-09T06:37:35.705Z,98731.66
2022-12-09T06:40:03.991Z,98727.25
2022-12-09T06:42:32.576Z,98735.28
2022-12-09T06:44:59.986Z,98734.69
2022-12-09T06:47:27.329Z,98740.91
2022-12-09T06:50:02.704Z,98742.75
2022-12-09T06:52:33.651Z,98747.53
2022-12-09T06:55:00.893Z,98742.09
2022-12-09T06:57:28.875Z,98735.25
2022-12-09T06:59:57.510Z,98734.53
2022-12-09T07:02:24.969Z,98737.41
2022-12-09T07:04:53.390Z,98738.47
2022-12-09T07:07:21.136Z,98728.13
2022-12-09T07:09:51.213Z,98731.75
2022-12-09T07:12:18.499Z,98732.66
2022-12-09T07:14:45.767Z,98729.66
2022-12-09T07:17:17.626Z,98733.47
2022-12-09T07:19:45.618Z,98729.25
2022-12-09T07:22:13.446Z,98724.44
2022-12-09T07:24:40.647Z,98718.03
2022-12-09T07:27:13.025Z,98713.84
2022-12-09T07:29:43.276Z,98712.09
2022-12-09T07:32:11.634Z,98714.38
2022-12-09T07:34:40.648Z,98717.53
2022-12-09T07:37:08.682Z,98708.41
2022-12-09T07:39:36.071Z,98710.28
2022-12-09T07:42:03.974Z,98708.97
2022-12-09T07:44:31.737Z,98710.53
2022-12-09T07:46:59.404Z,98712.47
2022-12-09T07:49:26.610Z,98718.00
2022-12-09T07:51:55.454Z,98712.34
2022-12-09T07:54:22.615Z,98714.81
2022-12-09T07:56:53.009Z,98723.34
2022-12-09T07:59:21.108Z,98719.13
2022-12-09T08:01:48.195Z,98713.00
2022-12-09T08:04:16.389Z,98715.09
2022-12-09T08:06:43.655Z,98720.09
2022-12-09T08:09:14.763Z,98716.22
2022-12-09T08:11:42.478Z,98708.56
2022-12-09T08:14:13.099Z,98701.72
2022-12-09T08:16:43.813Z,98706.72
2022-12-09T08:19:12.342Z,98699.16
2022-12-09T08:21:39.852Z,98697.66
2022-12-09T08:24:08.055Z,98692.03
2022-12-09T08:26:39.387Z,98689.72
2022-12-09T08:29:09.422Z,98693.94
2022-12-09T08:31:41.555Z,98695.94
2022-12-09T08:34:09.978Z,98701.94
2022-12-09T08:36:37.912Z,98704.91
2022-12-09T08:39:06.135Z,98698.81
2022-12-09T08:41:38.075Z,98697.91
2022-12-09T08:44:08.126Z,98703.72
2022-12-09T08:46:37.231Z,98707.91
2022-12-09T08:49:04.877Z,98712.03
2022-12-09T08:51:33.297Z,98704.69
2022-12-09T08:56:56.052Z,98703.34
2022-12-09T08:59:24.490Z,98692.78
2022-12-09T09:01:51.750Z,98697.94
2022-12-09T09:04:20.809Z,98689.69
2022-12-09T09:06:50.697Z,98676.16
2022-12-09T09:09:18.676Z,98674.44
2022-12-09T09:11:46.714Z,98681.66
2022-12-09T09:14:15.785Z,98675.56
2022-12-09T09:16:45.584Z,98671.66
2022-12-09T09:19:16.559Z,98671.53
2022-12-09T09:21:44.456Z,98662.94
2022-12-09T09:24:12.929Z,98671.69
2022-12-09T09:26:42.412Z,98658.78
2022-12-09T09:29:11.220Z,98658.81
2022-12-09T09:31:39.965Z,98654.13
2022-12-09T09:34:07.656Z,98648.03
2022-12-09T09:36:35.520Z,98651.63
2022-12-09T09:39:03.046Z,98644.38
2022-12-09T09:41:43.761Z,98637.31
2022-12-09T09:44:19.668Z,98627.66
2022-12-09T09:46:50.801Z,98624.88
2022-12-09T09:49:25.581Z,98617.78
2022-12-09T09:51:53.395Z,98614.41
2022-12-09T09:54:20.734Z,98603.81
2022-12-09T09:56:55.227Z,98603.81
2022-12-09T09:59:31.066Z,98609.16
2022-12-09T10:02:13.643Z,98605.06
2022-12-09T10:04:51.979Z,98610.38
2022-12-09T10:07:25.041Z,98604.88
2022-12-09T10:10:03.121Z,98608.81
2022-12-09T10:12:48.533Z,98603.13
2022-12-09T10:15:19.707Z,98597.44
2022-12-09T10:17:52.203Z,98591.75
2022-12-09T10:20:26.682Z,98577.41
2022-12-09T10:23:00.079Z,98564.41
2022-12-09T10:25:29.448Z,98564.59
2022-12-09T10:28:04.961Z,98557.69
2022-12-09T10:30:39.783Z,98550.44
2022-12-09T10:33:13.712Z,98534.03
2022-12-09T10:35:41.538Z,98530.28
2022-12-09T10:38:11.152Z,98534.56
2022-12-09T10:40:53.104Z,98543.03
2022-12-09T10:43:41.051Z,98546.97
2022-12-09T10:46:19.279Z,98534.41
2022-12-09T10:48:55.951Z,98543.91
2022-12-09T10:51:26.234Z,98522.28
2022-12-09T10:54:00.208Z,98512.84
2022-12-09T10:56:29.924Z,98510.28
2022-12-09T10:59:10.596Z,98520.34
2022-12-09T11:01:50.651Z,98521.31
2022-12-09T11:04:24.162Z,98508.50
2022-12-09T11:06:59.086Z,98508.50
2022-12-09T11:09:29.774Z,98501.81
2022-12-09T11:11:57.701Z,98498.28
2022-12-09T11:14:30.481Z,98496.31
2022-12-09T11:17:11.244Z,98498.06
2022-12-09T11:19:40.860Z,98499.63
2022-12-09T11:22:20.790Z,98488.38
2022-12-09T11:24:49.057Z,98491.53
2022-12-09T11:27:28.941Z,98495.88
2022-12-09T11:30:15.270Z,98484.84
2022-12-09T11:33:00.162Z,98487.38
2022-12-09T11:35:53.696Z,98501.56
2022-12-09T11:38:46.333Z,98490.66
2022-12-09T11:41:40.701Z,98472.22
2022-12-09T11:44:22.177Z,98472.41
2022-12-09T11:46:57.361Z,98464.25
2022-12-09T11:49:25.813Z,98471.78
2022-12-09T11:52:07.317Z,98475.81
2022-12-09T11:54:40.671Z,98479.50
2022-12-09T11:57:33.252Z,98478.72
2022-12-09T12:00:05.912Z,98481.59
2022-12-09T12:02:40.258Z,98479.94
2022-12-09T12:05:21.739Z,98476.03
2022-12-09T12:07:58.656Z,98473.69
2022-12-09T12:10:29.170Z,98475.13
2022-12-09T12:13:04.345Z,98474.25
2022-12-09T12:15:40.978Z,98477.50
2022-12-09T12:18:13.669Z,98472.44
2022-12-09T12:20:57.434Z,98464.41
2022-12-09T12:23:40.850Z,98465.97
2022-12-09T12:26:16.138Z,98461.03
2022-12-09T12:28:55.320Z,98461.34
2022-12-09T12:31:45.443Z,98464.28
2022-12-09T12:34:25.999Z,98455.66
2022-12-09T12:37:01.973Z,98456.31
2022-12-09T12:39:42.081Z,98452.03
2022-12-09T12:42:21.164Z,98450.84
2022-12-09T12:45:14.121Z,98452.50
2022-12-09T12:47:46.779Z,98448.09
2022-12-09T12:50:31.362Z,98435.56
2022-12-09T12:53:06.117Z,98436.22
2022-12-09T12:55:49.461Z,98434.31
2022-12-09T12:58:38.996Z,98445.75
2022-12-09T13:01:13.660Z,98444.25
2022-12-09T13:03:49.159Z,98439.22
2022-12-09T13:06:20.822Z,98447.59
2022-12-09T13:09:01.353Z,98441.75
2022-12-09T13:11:40.026Z,98426.81
2022-12-09T13:14:12.526Z,98426.69
2022-12-09T13:16:41.986Z,98426.56
2022-12-09T13:19:15.329Z,98415.56
2022-12-09T13:21:44.333Z,98428.28
2022-12-09T13:24:22.706Z,98427.97
2022-12-09T13:26:58.636Z,98423.91
2022-12-09T13:29:34.568Z,98431.25
2022-12-09T13:32:14.386Z,98431.94
2022-12-09T13:34:44.497Z,98425.66
2022-12-09T13:37:33.740Z,98428.28
2022-12-09T13:40:01.271Z,98441.03
2022-12-09T13:42:58.573Z,98430.03
2022-12-09T13:45:30.028Z,98429.31
2022-12-09T13:48:00.332Z,98432.75
2022-12-09T13:50:34.468Z,98431.81
2022-12-09T13:53:04.534Z,98425.16
2022-12-09T13:55:49.860Z,98428.59
2022-12-09T13:58:58.210Z,98423.72
2022-12-09T14:01:32.977Z,98430.13
2022-12-09T14:04:11.614Z,98428.44
2022-12-09T14:06:52.341Z,98424.34
2022-12-09T14:09:28.565Z,98420.81
2022-12-09T14:11:56.723Z,98425.91
2022-12-09T14:14:53.224Z,98429.84
2022-12-09T14:17:53.532Z,98425.56
2022-12-09T14:20:23.697Z,98427.63
2022-12-09T14:23:17.950Z,98419.41
2022-12-09T14:26:32.024Z,98420.69
2022-12-09T14:28:59.328Z,98416.78
2022-12-09T14:31:48.129Z,98417.63
2022-12-09T14:34:37.712Z,98422.22
2022-12-09T14:37:52.208Z,98423.84
2022-12-09T14:40:32.959Z,98425.66
2022-12-09T14:43:10.459Z,98418.00
2022-12-09T14:45:48.764Z,98415.13
2022-12-09T14:48:21.440Z,98408.44
2022-12-09T14:51:04.626Z,98410.25
2022-12-09T14:53:34.419Z,98405.53
2022-12-09T14:56:03.272Z,98407.34
2022-12-09T14:58:30.513Z,98403.63
2022-12-09T15:01:02.721Z,98392.41
2022-12-09T15:03:34.303Z,98384.56
2022-12-09T15:06:06.090Z,98391.06
2022-12-09T15:08:35.618Z,98387.34
2022-12-09T15:11:09.031Z,98379.47
2022-12-09T15:13:37.973Z,98384.22
2022-12-09T15:16:09.062Z,98379.50
2022-12-09T15:18:39.015Z,98381.69
2022-12-09T15:21:06.952Z,98385.06
2022-12-09T15:23:36.041Z,98390.38
2022-12-09T15:26:07.194Z,98388.41
2022-12-09T15:28:36.962Z,98394.91
2022-12-09T15:31:06.377Z,98388.44
2022-12-09T15:33:40.820Z,98378.97
2022-12-09T15:36:10.153Z,98372.50
2022-12-09T15:38:42.456Z,98376.25
2022-12-09T15:41:29.398Z,98386.91
2022-12-09T15:44:01.507Z,98376.25
2022-12-09T15:46:31.486Z,98373.91
2022-12-09T15:49:00.871Z,98369.19
2022-12-09T15:51:29.073Z,98364.88
2022-12-09T15:54:00.120Z,98367.44
2022-12-09T15:56:32.167Z,98364.88
2022-12-09T15:59:11.305Z,98358.94
2022-12-09T16:01:49.942Z,98362.69
2022-12-09T16:04:20.091Z,98364.66
2022-12-09T16:06:48.999Z,98358.38
2022-12-09T16:09:18.850Z,98351.50
2022-12-09T16:11:49.698Z,98361.38
2022-12-09T16:14:18.758Z,98358.44
2022-12-09T16:16:48.157Z,98363.94
2022-12-09T16:19:40.653Z,98364.94
2022-12-09T16:22:16.704Z,98354.31
2022-12-09T16:27:39.996Z,98340.72
2022-12-09T16:30:13.479Z,98348.00
2022-12-09T16:32:43.538Z,98331.06
2022-12-09T16:35:20.848Z,98325.56
2022-12-09T16:38:16.410Z,98313.56
2022-12-09T16:41:11.568Z,98319.88
2022-12-09T16:43:54.745Z,98331.88
2022-12-09T16:46:41.284Z,98339.56
2022-12-09T16:49:08.583Z,98325.38
2022-12-09T16:51:37.646Z,98318.69
2022-12-09T16:54:15.151Z,98321.25
2022-12-09T16:56:46.614Z,98322.03
2022-12-09T16:59:15.141Z,98322.03
2022-12-09T17:01:42.768Z,98311.22
2022-12-09T17:04:14.862Z,98308.06
2022-12-09T17:06:41.858Z,98314.16
2022-12-09T17:09:09.880Z,98308.66
2022-12-09T17:11:36.880Z,98305.69
2022-12-09T17:14:04.411Z,98305.47
2022-12-09T17:16:34.143Z,98300.16
2022-12-09T17:19:05.697Z,98292.31
2022-12-09T17:21:32.688Z,98296.06
2022-12-09T17:23:59.838Z,98291.34
2022-12-09T17:26:26.924Z,98297.44
2022-12-09T17:28:59.830Z,98296.25
2022-12-09T17:31:28.797Z,98293.13
2022-12-09T17:33:57.606Z,98285.03
2022-12-09T17:36:24.590Z,98291.34
2022-12-09T17:38:51.756Z,98278.94
2022-12-09T17:41:23.454Z,98278.75
2022-12-09T17:43:51.376Z,98284.25
2022-12-09T17:46:19.599Z,98275.03
2022-12-09T17:48:46.732Z,98271.84
2022-12-09T17:51:18.022Z,98272.84
2022-12-09T17:53:46.182Z,98265.19
2022-12-09T17:56:14.810Z,98263.22
2022-12-09T17:58:42.916Z,98265.34
2022-12-09T18:01:13.874Z,98277.97
2022-12-09T18:04:01.327Z,98261.81
2022-12-09T18:06:34.205Z,98262.63
2022-12-09T18:09:02.291Z,98258.88
2022-12-09T18:11:29.305Z,98258.09
2022-12-09T18:13:56.363Z,98266.75
2022-12-09T18:16:25.996Z,98271.06
2022-12-09T18:18:54.055Z,98275.38
2022-12-09T18:21:21.526Z,98277.16
2022-12-09T18:23:49.846Z,98272.63
2022-12-09T18:26:18.399Z,98276.56
2022-12-09T18:28:45.607Z,98268.47
2022-12-09T18:31:15.351Z,98270.06
2022-12-09T18:33:43.139Z,98269.88
2022-12-09T18:36:12.310Z,98271.66
2022-12-09T18:38:40.643Z,98273.00
2022-12-09T18:41:12.595Z,98265.94
2022-12-09T18:43:42.663Z,98261.81
2022-12-09T18:46:11.894Z,98273.00
2022-12-09T18:48:39.572Z,98260.44
2022-12-09T18:51:13.923Z,98262.41
2022-12-09T18:53:41.271Z,98265.72
2022-12-09T18:56:08.565Z,98258.06
2022-12-09T18:59:04.682Z,98258.88
2022-12-09T19:01:26.308Z,98259.84
2022-12-09T19:03:55.977Z,98266.13
2022-12-09T19:06:25.250Z,98257.69
2022-12-09T19:08:55.322Z,98259.66
2022-12-09T19:11:24.233Z,98267.91
2022-12-09T19:13:53.242Z,98261.03
2022-12-09T19:16:20.963Z,98264.34
2022-12-09T19:18:48.564Z,98266.16
2022-12-09T19:21:17.603Z,98258.06
2022-12-09T19:23:45.568Z,98261.00
2022-12-09T19:26:13.398Z,98258.00
2022-12-09T19:28:46.220Z,98259.78
2022-12-09T19:31:16.757Z,98269.22
2022-12-09T19:33:43.895Z,98259.00
2022-12-09T19:36:11.510Z,98250.34
2022-12-09T19:38:38.987Z,98250.34
2022-12-09T19:41:06.913Z,98255.06
2022-12-09T19:43:34.389Z,98241.88
2022-12-09T19:46:06.267Z,98249.16
2022-12-09T19:48:36.376Z,98242.50
2022-12-09T19:51:05.194Z,98241.50
2022-12-09T19:53:32.979Z,98238.94
2022-12-09T19:56:01.620Z,98242.28
2022-12-09T19:58:29.139Z,98245.03
2022-12-09T20:00:56.221Z,98245.81
2022-12-09T20:03:23.364Z,98241.88
2022-12-09T20:05:53.960Z,98235.97
2022-12-09T20:08:21.090Z,98233.59
2022-12-09T20:10:48.460Z,98232.84
2022-12-09T20:13:15.939Z,98250.31
2022-12-09T20:15:43.178Z,98237.91
2022-12-09T20:18:10.574Z,98225.94
2022-12-09T20:20:38.001Z,98217.47
2022-12-09T20:23:06.660Z,98216.72
2022-12-09T20:25:34.813Z,98218.47
2022-12-09T20:28:02.838Z,98222.59
2022-12-09T20:30:30.724Z,98221.03
2022-12-09T20:32:57.966Z,98215.91
2022-12-09T20:35:26.811Z,98210.03
2022-12-09T20:37:53.881Z,98197.25
2022-12-09T20:40:22.540Z,98181.94
2022-12-09T20:42:49.527Z,98196.47
2022-12-09T20:45:16.693Z,98194.72
2022-12-09T20:47:43.909Z,98189.38
2022-12-09T20:50:12.302Z,98198.03
2022-12-09T20:52:39.493Z,98190.38
2022-12-09T20:55:08.094Z,98193.13
2022-12-09T20:57:36.605Z,98195.88
2022-12-09T21:00:04.905Z,98187.63
2022-12-09T21:02:39.610Z,98191.13
2022-12-09T21:05:08.185Z,98182.09
2022-12-09T21:07:35.393Z,98172.88
2022-12-09T21:10:02.525Z,98174.06
2022-12-09T21:12:29.654Z,98174.06
2022-12-09T21:14:58.030Z,98166.38
2022-12-09T21:17:25.016Z,98162.25
2022-12-09T21:19:52.077Z,98158.13
2022-12-09T21:22:19.151Z,98165.19
2022-12-09T21:24:47.307Z,98161.25
2022-12-09T21:27:14.381Z,98147.72
2022-12-09T21:29:41.975Z,98145.94
2022-12-09T21:32:10.302Z,98140.44
2022-12-09T21:34:37.408Z,98139.84
2022-12-09T21:37:04.562Z,98152.59
2022-12-09T21:39:32.289Z,98151.03
2022-12-09T21:41:59.729Z,98142.78
2022-12-09T21:44:28.356Z,98147.31
2022-12-09T21:46:55.383Z,98140.59
2022-12-09T21:49:23.979Z,98131.38
2022-12-09T21:51:51.161Z,98129.81
2022-12-09T21:54:18.171Z,98129.81
2022-12-09T21:56:45.237Z,98125.47
2022-12-09T21:59:12.247Z,98115.47
2022-12-09T22:01:41.131Z,98109.56
2022-12-09T22:04:11.582Z,98111.34
2022-12-09T22:06:40.242Z,98109.38
2022-12-09T22:09:08.442Z,98105.03
2022-12-09T22:11:37.587Z,98109.19
2022-12-09T22:14:06.997Z,98103.88
2022-12-09T22:16:35.542Z,98106.44
2022-12-09T22:19:03.715Z,98110.56
2022-12-09T22:21:33.650Z,98105.44
2022-12-09T22:24:04.533Z,98091.31
2022-12-09T22:26:32.752Z,98099.75
2022-12-09T22:29:00.544Z,98093.69
2022-12-09T22:31:29.749Z,98094.44
2022-12-09T22:34:02.372Z,98101.34
2022-12-09T22:36:29.885Z,98092.69
2022-12-09T22:38:57.059Z,98103.88
2022-12-09T22:41:27.586Z,98109.00
2022-12-09T22:43:55.590Z,98105.03
2022-12-09T22:46:24.309Z,98104.84
2022-12-09T22:48:51.706Z,98096.63
2022-12-09T22:51:21.881Z,98103.66
2022-12-09T22:53:49.362Z,98094.44
2022-12-09T22:56:19.958Z,98092.88
2022-12-09T22:58:48.833Z,98091.28
2022-12-09T23:01:17.722Z,98094.84
2022-12-09T23:03:44.804Z,98086.59
2022-12-09T23:06:12.496Z,98077.72
2022-12-09T23:08:41.172Z,98079.50
2022-12-09T23:11:10.768Z,98080.28
2022-12-09T23:13:41.179Z,98085.38
2022-12-09T23:16:12.941Z,98081.88
2022-12-09T23:18:40.536Z,98076.97
2022-12-09T23:21:12.186Z,98063.59
2022-12-09T23:23:40.541Z,98061.03
2022-12-09T23:26:09.334Z,98046.09
2022-12-09T23:28:37.367Z,98042.00
2022-12-09T23:31:05.908Z,98038.22
2022-12-09T23:33:35.349Z,98039.22
2022-12-09T23:36:06.323Z,98034.91
2022-12-09T23:38:33.299Z,98037.66
2022-12-09T23:41:00.665Z,98036.09
2022-12-09T23:43:30.259Z,98030.38
2022-12-09T23:46:00.206Z,98032.34
2022-12-09T23:48:27.208Z,98036.25
2022-12-09T23:50:55.708Z,98034.88
2022-12-09T23:53:22.809Z,98037.63
2022-12-09T23:55:49.957Z,98028.41
2022-12-09T23:58:16.925Z,98021.72
